Time;durP1;ratioP1;P1;durP2;ratioP2;P2;SDS_P1;SDS_P2;PMS_P1;PMS_P2;Temp;Humidity;BMP_temperature;BMP_pressure;BME280_temperature;BME280_humidity;BME280_pressure;Samples;Min_cycle;Max_cycle;Signal;HPM_P1;HPM_P2
2022/11/18 00:00:49;;;;;;;20.90;3.10;;;;;;;;;;4970624;28;20031;-60
2022/11/18 00:03:15;;;;;;;14.40;2.80;;;;;;;;;;4970997;28;20415;-60
2022/11/18 00:05:42;;;;;;;19.45;3.28;;;;;;;;;;4971023;28;20050;-60
2022/11/18 00:08:08;;;;;;;13.63;3.08;;;;;;;;;;4971132;28;20022;-60
2022/11/18 00:10:38;;;;;;;14.40;3.25;;;;;;;;;;4971002;28;20118;-61
2022/11/18 00:15:49;;;;;;;19.55;2.75;;;;;;;;;;4971114;28;20480;-60
2022/11/18 00:18:15;;;;;;;18.40;3.78;;;;;;;;;;4970552;28;20111;-60
2022/11/18 00:20:41;;;;;;;18.50;2.75;;;;;;;;;;4970877;28;20089;-60
2022/11/18 00:23:07;;;;;;;18.80;2.47;;;;;;;;;;4970784;28;20031;-60
2022/11/18 00:25:33;;;;;;;14.10;2.03;;;;;;;;;;4970605;28;20038;-60
2022/11/18 00:27:59;;;;;;;15.60;2.22;;;;;;;;;;4970290;28;20030;-60
2022/11/18 00:30:26;;;;;;;23.63;2.25;;;;;;;;;;4970770;28;20408;-61
2022/11/18 00:32:52;;;;;;;21.17;2.70;;;;;;;;;;4970401;28;20030;-60
2022/11/18 00:35:18;;;;;;;12.98;1.80;;;;;;;;;;4970577;28;20080;-60
2022/11/18 00:37:44;;;;;;;17.00;2.40;;;;;;;;;;4970838;28;20114;-61
2022/11/18 00:40:10;;;;;;;6.30;2.13;;;;;;;;;;4969958;28;20065;-61
2022/11/18 00:43:09;;;;;;;16.45;2.08;;;;;;;;;;4970627;28;20019;-60
2022/11/18 00:45:29;;;;;;;13.93;2.55;;;;;;;;;;4973089;28;20126;-60
2022/11/18 00:47:55;;;;;;;14.30;2.63;;;;;;;;;;4970242;28;20027;-60
2022/11/18 00:50:21;;;;;;;17.77;2.47;;;;;;;;;;4970468;28;20035;-60
2022/11/18 00:52:47;;;;;;;23.80;3.47;;;;;;;;;;4970585;28;20439;-60
2022/11/18 00:55:13;;;;;;;20.05;3.53;;;;;;;;;;4969669;28;20027;-60
2022/11/18 00:57:39;;;;;;;18.90;3.25;;;;;;;;;;4970576;28;20038;-60
2022/11/18 01:00:06;;;;;;;14.80;2.13;;;;;;;;;;4970230;28;20035;-61
2022/11/18 01:02:33;;;;;;;18.60;2.92;;;;;;;;;;4970305;28;20019;-61
2022/11/18 01:04:59;;;;;;;17.67;2.85;;;;;;;;;;4970080;28;20054;-61
2022/11/18 01:07:25;;;;;;;20.45;4.60;;;;;;;;;;4970126;28;20042;-61
2022/11/18 01:09:51;;;;;;;19.38;2.75;;;;;;;;;;4969991;28;20035;-61
2022/11/18 01:15:02;;;;;;;19.63;3.10;;;;;;;;;;4973606;28;20035;-60
2022/11/18 01:17:31;;;;;;;23.60;3.15;;;;;;;;;;4973547;28;20392;-60
2022/11/18 01:19:57;;;;;;;25.00;3.58;;;;;;;;;;4973484;28;20447;-61
2022/11/18 01:22:23;;;;;;;14.38;2.22;;;;;;;;;;4973497;28;20027;-60
2022/11/18 01:24:49;;;;;;;14.35;3.20;;;;;;;;;;4973010;28;20468;-60
2022/11/18 01:27:15;;;;;;;14.52;2.78;;;;;;;;;;4973300;28;20041;-60
2022/11/18 01:29:41;;;;;;;21.75;3.03;;;;;;;;;;4973610;28;20396;-60
2022/11/18 01:32:07;;;;;;;25.73;2.67;;;;;;;;;;4973108;28;20019;-61
2022/11/18 01:34:33;;;;;;;24.50;3.17;;;;;;;;;;4973483;28;20090;-60
2022/11/18 01:37:00;;;;;;;18.85;3.08;;;;;;;;;;4973147;28;20027;-60
2022/11/18 01:39:26;;;;;;;27.80;3.10;;;;;;;;;;4972951;28;20031;-61
2022/11/18 01:41:52;;;;;;;19.05;3.50;;;;;;;;;;4973269;28;20023;-60
2022/11/18 01:44:37;;;;;;;22.95;3.45;;;;;;;;;;4972935;28;20151;-60
2022/11/18 01:47:03;;;;;;;19.38;2.92;;;;;;;;;;4972833;28;20039;-60
2022/11/18 01:49:29;;;;;;;20.05;3.03;;;;;;;;;;4973099;28;20096;-60
2022/11/18 01:51:57;;;;;;;11.35;3.40;;;;;;;;;;4973127;28;20462;-60
2022/11/18 01:54:35;;;;;;;18.20;2.78;;;;;;;;;;4972532;28;20015;-60
2022/11/18 01:57:03;;;;;;;18.27;3.42;;;;;;;;;;4972855;28;20030;-60
2022/11/18 01:59:31;;;;;;;23.63;3.03;;;;;;;;;;4973034;28;20027;-60
2022/11/18 02:01:59;;;;;;;17.90;2.50;;;;;;;;;;4972921;28;20023;-61
2022/11/18 02:04:26;;;;;;;20.27;2.30;;;;;;;;;;4972915;28;20066;-60
2022/11/18 02:06:53;;;;;;;12.75;2.20;;;;;;;;;;4972614;28;20035;-61
2022/11/18 02:09:19;;;;;;;13.93;2.17;;;;;;;;;;4972521;28;20468;-61
2022/11/18 02:11:53;;;;;;;13.18;2.90;;;;;;;;;;4972994;28;20027;-61
2022/11/18 02:14:22;;;;;;;12.55;3.00;;;;;;;;;;4972701;28;20057;-60
2022/11/18 02:16:57;;;;;;;24.05;3.70;;;;;;;;;;4972832;28;20018;-60
2022/11/18 02:19:35;;;;;;;27.17;3.30;;;;;;;;;;4972341;28;20075;-61
2022/11/18 02:22:12;;;;;;;23.67;2.95;;;;;;;;;;4971846;28;20472;-61
2022/11/18 02:24:38;;;;;;;19.55;3.85;;;;;;;;;;4972628;28;20114;-59
2022/11/18 02:27:24;;;;;;;29.67;3.35;;;;;;;;;;4972486;28;20030;-60
2022/11/18 02:29:53;;;;;;;26.33;5.40;;;;;;;;;;4985385;28;20035;-60
2022/11/18 02:32:23;;;;;;;22.27;4.35;;;;;;;;;;4972211;28;20019;-61
2022/11/18 02:35:19;;;;;;;25.73;4.55;;;;;;;;;;4972391;28;20030;-60
2022/11/18 02:37:48;;;;;;;23.15;3.90;;;;;;;;;;4988224;28;20039;-60
2022/11/18 02:40:33;;;;;;;30.70;3.38;;;;;;;;;;4972273;28;20039;-61
2022/11/18 02:43:01;;;;;;;21.90;3.67;;;;;;;;;;4972200;28;20042;-60
2022/11/18 02:45:27;;;;;;;13.23;2.80;;;;;;;;;;4972246;28;20035;-60
2022/11/18 02:47:55;;;;;;;23.83;4.65;;;;;;;;;;4972128;28;20039;-60
2022/11/18 02:50:24;;;;;;;26.20;3.80;;;;;;;;;;4972127;28;20473;-60
2022/11/18 02:52:52;;;;;;;30.17;5.15;;;;;;;;;;4972091;28;20038;-60
2022/11/18 02:55:19;;;;;;;22.02;3.25;;;;;;;;;;4971813;28;20072;-60
2022/11/18 02:57:45;;;;;;;17.48;3.20;;;;;;;;;;4971978;28;20039;-60
2022/11/18 03:00:12;;;;;;;16.48;3.17;;;;;;;;;;4971939;28;20037;-61
2022/11/18 03:02:42;;;;;;;28.38;3.10;;;;;;;;;;4971917;28;20472;-60
2022/11/18 03:05:12;;;;;;;17.35;3.75;;;;;;;;;;4971832;28;20039;-60
2022/11/18 03:07:41;;;;;;;20.65;5.00;;;;;;;;;;4971819;28;20506;-60
2022/11/18 03:10:07;;;;;;;32.25;3.67;;;;;;;;;;4971781;28;20050;-60
2022/11/18 03:12:36;;;;;;;25.98;3.25;;;;;;;;;;4971859;28;20043;-60
2022/11/18 03:15:05;;;;;;;23.48;3.13;;;;;;;;;;4972087;28;20034;-60
2022/11/18 03:17:46;;;;;;;38.03;5.25;;;;;;;;;;4971760;28;20035;-60
2022/11/18 03:20:21;;;;;;;24.25;4.32;;;;;;;;;;4971264;28;20165;-60
2022/11/18 03:22:54;;;;;;;31.52;3.85;;;;;;;;;;4971854;28;20122;-60
2022/11/18 03:25:22;;;;;;;20.80;4.00;;;;;;;;;;4970278;28;20038;-60
2022/11/18 03:27:53;;;;;;;25.67;4.78;;;;;;;;;;4971752;28;20055;-60
2022/11/18 03:30:20;;;;;;;31.55;4.90;;;;;;;;;;4971466;28;20033;-60
2022/11/18 03:32:49;;;;;;;18.85;3.72;;;;;;;;;;4971380;28;20022;-60
2022/11/18 03:35:17;;;;;;;27.45;3.85;;;;;;;;;;4970146;28;20042;-60
2022/11/18 03:37:44;;;;;;;19.27;3.40;;;;;;;;;;4971684;28;20031;-60
2022/11/18 03:40:18;;;;;;;22.65;4.18;;;;;;;;;;4971270;28;20042;-60
2022/11/18 03:42:46;;;;;;;27.35;3.78;;;;;;;;;;4971324;28;20045;-60
2022/11/18 03:45:15;;;;;;;26.52;3.72;;;;;;;;;;4971197;28;20019;-60
2022/11/18 03:47:43;;;;;;;29.40;4.07;;;;;;;;;;4971086;28;20034;-60
2022/11/18 03:50:29;;;;;;;27.98;3.95;;;;;;;;;;4970861;28;20495;-60
2022/11/18 03:52:55;;;;;;;26.40;4.35;;;;;;;;;;4971289;28;20481;-60
2022/11/18 03:55:23;;;;;;;33.70;4.00;;;;;;;;;;4970874;28;20068;-60
2022/11/18 03:57:49;;;;;;;25.17;2.92;;;;;;;;;;4971343;28;20084;-60
2022/11/18 04:00:18;;;;;;;21.65;3.63;;;;;;;;;;4969849;28;20038;-60
2022/11/18 04:02:45;;;;;;;28.60;3.88;;;;;;;;;;4970766;28;20114;-60
2022/11/18 04:05:12;;;;;;;12.30;3.20;;;;;;;;;;4971129;28;20035;-60
2022/11/18 04:07:45;;;;;;;22.60;3.20;;;;;;;;;;4970872;28;20093;-60
2022/11/18 04:10:19;;;;;;;14.05;2.67;;;;;;;;;;4970988;28;20109;-60
2022/11/18 04:12:49;;;;;;;23.25;3.92;;;;;;;;;;4970855;28;20030;-60
2022/11/18 04:15:16;;;;;;;19.40;2.85;;;;;;;;;;4970907;28;20030;-60
2022/11/18 04:17:42;;;;;;;25.90;3.38;;;;;;;;;;4970525;28;20046;-60
2022/11/18 04:20:12;;;;;;;21.50;3.28;;;;;;;;;;4970843;28;20077;-60
2022/11/18 04:22:39;;;;;;;14.10;2.88;;;;;;;;;;4970660;28;20030;-60
2022/11/18 04:25:05;;;;;;;20.95;4.43;;;;;;;;;;4973271;28;20030;-60
2022/11/18 04:27:31;;;;;;;19.05;3.13;;;;;;;;;;4979832;28;20035;-60
2022/11/18 04:29:57;;;;;;;18.05;3.13;;;;;;;;;;4979635;28;20098;-60
2022/11/18 04:32:23;;;;;;;21.08;3.22;;;;;;;;;;4979262;28;20076;-60
2022/11/18 04:34:49;;;;;;;20.80;3.25;;;;;;;;;;4981458;28;20060;-60
2022/11/18 04:37:15;;;;;;;22.40;3.35;;;;;;;;;;4980601;28;20118;-60
2022/11/18 04:39:41;;;;;;;26.95;4.10;;;;;;;;;;4979301;28;20035;-60
2022/11/18 04:42:07;;;;;;;23.95;3.65;;;;;;;;;;4980349;28;20096;-60
2022/11/18 04:44:34;;;;;;;9.38;2.45;;;;;;;;;;4979203;28;20031;-60
2022/11/18 04:47:01;;;;;;;15.98;3.15;;;;;;;;;;4979661;28;20076;-60
2022/11/18 04:49:27;;;;;;;12.20;2.10;;;;;;;;;;4979995;28;20030;-60
2022/11/18 04:51:54;;;;;;;11.07;2.03;;;;;;;;;;4980731;28;20452;-60
2022/11/18 04:54:20;;;;;;;18.75;3.35;;;;;;;;;;4978297;28;20019;-60
2022/11/18 04:56:47;;;;;;;20.83;3.60;;;;;;;;;;4979164;28;20033;-60
2022/11/18 04:59:14;;;;;;;37.08;3.70;;;;;;;;;;4979869;28;20023;-60
2022/11/18 05:01:40;;;;;;;22.27;3.83;;;;;;;;;;4980439;28;20046;-61
2022/11/18 05:04:07;;;;;;;32.15;3.80;;;;;;;;;;4978808;28;20077;-60
2022/11/18 05:06:33;;;;;;;29.77;3.60;;;;;;;;;;4980172;28;20027;-60
2022/11/18 05:09:00;;;;;;;23.95;3.92;;;;;;;;;;4977916;28;20045;-60
2022/11/18 05:14:12;;;;;;;27.05;3.97;;;;;;;;;;4979660;28;20031;-61
2022/11/18 05:16:38;;;;;;;21.05;3.58;;;;;;;;;;4978592;28;20033;-61
2022/11/18 05:19:05;;;;;;;32.28;4.38;;;;;;;;;;4980726;28;20502;-61
2022/11/18 05:21:31;;;;;;;28.13;4.57;;;;;;;;;;4980093;28;20101;-61
2022/11/18 05:24:00;;;;;;;24.75;3.30;;;;;;;;;;4979567;28;20495;-61
2022/11/18 05:26:27;;;;;;;20.40;4.30;;;;;;;;;;4979136;28;20023;-61
2022/11/18 05:28:53;;;;;;;29.63;3.22;;;;;;;;;;4977342;28;20420;-61
2022/11/18 05:31:19;;;;;;;20.38;4.78;;;;;;;;;;4978819;28;20026;-60
2022/11/18 05:33:45;;;;;;;21.40;3.78;;;;;;;;;;4970302;28;20043;-60
2022/11/18 05:36:12;;;;;;;14.07;2.17;;;;;;;;;;4970505;28;20027;-60
2022/11/18 05:38:39;;;;;;;11.70;2.35;;;;;;;;;;4970268;28;20507;-60
2022/11/18 05:41:06;;;;;;;15.63;2.30;;;;;;;;;;4970550;28;20092;-61
2022/11/18 05:43:32;;;;;;;15.02;2.45;;;;;;;;;;4970120;28;20122;-60
2022/11/18 05:45:58;;;;;;;12.45;2.45;;;;;;;;;;4971771;28;20031;-60
2022/11/18 05:48:25;;;;;;;19.35;2.88;;;;;;;;;;4989689;28;20054;-60
2022/11/18 05:50:52;;;;;;;19.77;3.17;;;;;;;;;;4989789;28;20525;-60
2022/11/18 05:53:19;;;;;;;22.70;3.53;;;;;;;;;;4989424;28;20476;-61
2022/11/18 05:56:24;;;;;;;17.92;3.65;;;;;;;;;;4989509;28;20030;-60
2022/11/18 05:58:50;;;;;;;17.70;2.60;;;;;;;;;;5066294;28;20032;-61
2022/11/18 06:01:19;;;;;;;22.52;3.75;;;;;;;;;;5065473;28;20123;-60
2022/11/18 06:03:45;;;;;;;21.42;2.70;;;;;;;;;;5070709;28;20053;-60
2022/11/18 06:06:13;;;;;;;17.25;2.60;;;;;;;;;;5062516;28;20044;-61
2022/11/18 06:08:42;;;;;;;15.48;3.08;;;;;;;;;;5056070;28;20541;-60
2022/11/18 06:11:10;;;;;;;15.32;2.35;;;;;;;;;;5068850;28;20029;-60
2022/11/18 06:13:40;;;;;;;22.33;3.65;;;;;;;;;;5053082;28;20032;-61
2022/11/18 06:16:06;;;;;;;13.20;3.17;;;;;;;;;;5061380;28;20041;-60
2022/11/18 06:18:32;;;;;;;14.32;2.97;;;;;;;;;;5063476;28;20036;-61
2022/11/18 06:21:00;;;;;;;12.40;2.75;;;;;;;;;;5068885;28;20486;-60
2022/11/18 06:23:28;;;;;;;24.88;3.10;;;;;;;;;;5069945;28;20045;-60
2022/11/18 06:25:54;;;;;;;21.73;4.35;;;;;;;;;;5064868;28;20036;-61
2022/11/18 06:28:21;;;;;;;14.73;3.38;;;;;;;;;;5045348;28;20041;-60
2022/11/18 06:30:47;;;;;;;18.10;3.20;;;;;;;;;;4982372;28;20030;-60
2022/11/18 06:33:13;;;;;;;17.65;3.00;;;;;;;;;;4985111;28;20113;-60
2022/11/18 06:35:41;;;;;;;16.73;2.83;;;;;;;;;;4977408;28;20038;-61
2022/11/18 06:38:07;;;;;;;25.20;3.03;;;;;;;;;;4990851;28;20090;-60
2022/11/18 06:40:34;;;;;;;13.23;3.03;;;;;;;;;;4982957;28;20027;-60
2022/11/18 06:48:48;;;;;;;13.20;2.17;;;;;;;;;;4979988;28;20034;-61
2022/11/18 06:51:14;;;;;;;19.45;2.90;;;;;;;;;;4983121;28;20025;-60
2022/11/18 06:53:40;;;;;;;12.05;2.63;;;;;;;;;;4978956;28;20015;-61
2022/11/18 06:56:07;;;;;;;12.70;2.63;;;;;;;;;;4978407;28;20026;-63
2022/11/18 06:58:34;;;;;;;9.45;1.92;;;;;;;;;;4975129;28;20041;-60
2022/11/18 07:01:22;;;;;;;16.27;3.38;;;;;;;;;;4986578;28;20026;-60
2022/11/18 07:03:48;;;;;;;17.13;4.20;;;;;;;;;;4983875;28;20117;-61
2022/11/18 07:06:16;;;;;;;13.93;2.95;;;;;;;;;;4979206;28;20046;-61
2022/11/18 07:08:42;;;;;;;18.42;2.97;;;;;;;;;;4979390;28;20469;-60
2022/11/18 07:11:10;;;;;;;13.32;3.08;;;;;;;;;;4980102;28;20097;-61
2022/11/18 07:13:37;;;;;;;17.70;3.17;;;;;;;;;;4987478;28;20390;-60
2022/11/18 07:16:07;;;;;;;14.45;2.80;;;;;;;;;;4986686;28;20026;-61
2022/11/18 07:18:34;;;;;;;23.27;3.40;;;;;;;;;;4981684;28;20029;-61
2022/11/18 07:21:04;;;;;;;11.82;3.35;;;;;;;;;;4985872;28;20027;-61
2022/11/18 07:23:31;;;;;;;18.15;3.40;;;;;;;;;;4983825;28;20041;-61
2022/11/18 07:25:57;;;;;;;12.40;2.42;;;;;;;;;;4986527;28;20068;-61
2022/11/18 07:28:24;;;;;;;10.07;2.00;;;;;;;;;;4979156;28;20424;-60
2022/11/18 07:30:50;;;;;;;9.07;1.88;;;;;;;;;;4980992;28;20026;-61
2022/11/18 07:33:16;;;;;;;10.65;1.98;;;;;;;;;;4983151;28;20046;-62
2022/11/18 07:35:42;;;;;;;9.10;2.25;;;;;;;;;;4982717;28;20014;-61
2022/11/18 07:38:08;;;;;;;19.00;2.40;;;;;;;;;;4983802;28;20037;-61
2022/11/18 07:40:34;;;;;;;15.95;2.03;;;;;;;;;;4982687;28;20026;-60
2022/11/18 07:43:00;;;;;;;16.00;2.67;;;;;;;;;;4975823;28;20077;-61
2022/11/18 07:45:27;;;;;;;12.07;2.13;;;;;;;;;;4978774;28;20062;-60
2022/11/18 07:47:53;;;;;;;11.52;2.42;;;;;;;;;;4976181;28;20488;-61
2022/11/18 07:50:19;;;;;;;16.67;3.10;;;;;;;;;;4975164;28;20121;-61
2022/11/18 07:52:45;;;;;;;15.35;2.88;;;;;;;;;;4977108;28;20903;-61
2022/11/18 07:55:11;;;;;;;23.98;4.40;;;;;;;;;;4977010;28;20029;-61
2022/11/18 07:57:37;;;;;;;12.93;2.75;;;;;;;;;;4979578;28;20029;-61
2022/11/18 08:00:03;;;;;;;13.32;2.90;;;;;;;;;;4975620;28;20031;-61
2022/11/18 08:02:38;;;;;;;11.73;2.58;;;;;;;;;;4971848;28;20102;-61
2022/11/18 08:05:04;;;;;;;15.10;3.30;;;;;;;;;;4982771;28;20553;-61
2022/11/18 08:07:30;;;;;;;19.15;3.33;;;;;;;;;;4982472;28;20407;-61
2022/11/18 08:09:56;;;;;;;14.00;4.03;;;;;;;;;;4978709;28;20038;-61
2022/11/18 08:12:22;;;;;;;14.93;3.53;;;;;;;;;;4980606;28;20029;-61
2022/11/18 08:14:48;;;;;;;15.68;2.90;;;;;;;;;;4978521;28;20101;-61
2022/11/18 08:17:14;;;;;;;10.77;2.80;;;;;;;;;;4981602;28;20030;-61
2022/11/18 08:19:40;;;;;;;18.02;4.03;;;;;;;;;;4984757;28;20113;-61
2022/11/18 08:22:06;;;;;;;15.13;2.70;;;;;;;;;;4982608;28;20549;-61
2022/11/18 08:24:33;;;;;;;13.57;2.65;;;;;;;;;;4976200;28;20084;-61
2022/11/18 08:26:59;;;;;;;21.00;3.03;;;;;;;;;;4981275;28;20015;-62
2022/11/18 08:29:25;;;;;;;17.25;2.75;;;;;;;;;;4983037;28;20027;-61
2022/11/18 08:31:51;;;;;;;21.02;4.30;;;;;;;;;;4986488;28;20053;-61
2022/11/18 08:34:17;;;;;;;17.55;3.33;;;;;;;;;;4983699;28;20041;-61
2022/11/18 08:36:43;;;;;;;16.55;3.53;;;;;;;;;;4982078;28;20050;-61
2022/11/18 08:39:11;;;;;;;21.83;3.35;;;;;;;;;;4981046;28;20038;-61
2022/11/18 08:41:41;;;;;;;23.50;2.70;;;;;;;;;;4976045;28;20027;-61
2022/11/18 08:44:09;;;;;;;13.52;2.70;;;;;;;;;;4972361;28;20033;-61
2022/11/18 08:46:35;;;;;;;18.52;3.35;;;;;;;;;;4972592;28;20062;-61
2022/11/18 08:49:02;;;;;;;14.98;2.35;;;;;;;;;;4974967;28;20126;-61
2022/11/18 08:51:28;;;;;;;20.25;3.00;;;;;;;;;;4977174;28;20436;-61
2022/11/18 08:53:54;;;;;;;16.25;3.30;;;;;;;;;;4971883;28;20594;-61
2022/11/18 08:56:21;;;;;;;18.83;3.60;;;;;;;;;;4979922;28;20022;-61
2022/11/18 08:58:47;;;;;;;26.00;3.25;;;;;;;;;;4982052;28;20035;-61
2022/11/18 09:01:13;;;;;;;15.55;2.85;;;;;;;;;;4978316;28;20027;-60
2022/11/18 09:03:40;;;;;;;12.35;2.92;;;;;;;;;;4971817;28;20043;-61
2022/11/18 09:06:10;;;;;;;18.90;2.97;;;;;;;;;;4973914;28;20035;-61
2022/11/18 09:08:36;;;;;;;23.40;4.18;;;;;;;;;;4981628;28;20169;-61
2022/11/18 09:11:10;;;;;;;11.30;3.00;;;;;;;;;;4973782;28;20054;-61
2022/11/18 09:13:36;;;;;;;16.77;2.55;;;;;;;;;;4970216;28;20099;-61
2022/11/18 09:16:03;;;;;;;21.67;3.50;;;;;;;;;;4976894;28;20673;-61
2022/11/18 09:18:29;;;;;;;13.50;2.53;;;;;;;;;;4978941;28;20034;-61
2022/11/18 09:20:57;;;;;;;18.40;2.90;;;;;;;;;;4974712;28;20050;-60
2022/11/18 09:23:23;;;;;;;15.13;2.95;;;;;;;;;;4977023;28;20061;-60
2022/11/18 09:25:56;;;;;;;10.30;2.80;;;;;;;;;;4974368;28;20100;-60
2022/11/18 09:28:22;;;;;;;23.95;3.10;;;;;;;;;;4975496;28;20038;-61
2022/11/18 09:30:48;;;;;;;13.07;2.35;;;;;;;;;;4983391;28;20026;-61
2022/11/18 09:33:15;;;;;;;12.27;2.60;;;;;;;;;;4986313;28;20022;-61
2022/11/18 09:35:44;;;;;;;10.82;2.40;;;;;;;;;;4984666;28;20050;-61
2022/11/18 09:38:11;;;;;;;19.63;2.63;;;;;;;;;;4986334;28;20137;-60
2022/11/18 09:40:43;;;;;;;12.15;2.78;;;;;;;;;;4981652;28;20507;-61
2022/11/18 09:43:14;;;;;;;15.85;2.67;;;;;;;;;;4985344;28;20546;-61
2022/11/18 09:45:43;;;;;;;16.10;2.20;;;;;;;;;;4985187;28;20026;-61
2022/11/18 09:48:16;;;;;;;14.52;3.25;;;;;;;;;;4987085;28;20553;-61
2022/11/18 09:50:42;;;;;;;11.00;2.35;;;;;;;;;;4977675;28;20031;-60
2022/11/18 09:53:21;;;;;;;12.07;1.88;;;;;;;;;;4976284;28;20023;-61
2022/11/18 09:55:48;;;;;;;12.52;2.47;;;;;;;;;;4979009;28;20031;-61
2022/11/18 09:58:17;;;;;;;13.35;2.70;;;;;;;;;;4982856;28;20773;-60
2022/11/18 10:00:45;;;;;;;7.72;1.45;;;;;;;;;;4979357;28;20491;-60
2022/11/18 10:03:15;;;;;;;8.88;1.48;;;;;;;;;;4981120;28;20100;-61
2022/11/18 10:05:50;;;;;;;13.38;1.90;;;;;;;;;;4985380;28;20407;-61
2022/11/18 10:08:30;;;;;;;18.17;2.83;;;;;;;;;;4985189;28;20053;-60
2022/11/18 10:11:10;;;;;;;10.50;1.52;;;;;;;;;;4984639;28;20730;-60
2022/11/18 10:13:40;;;;;;;9.95;1.85;;;;;;;;;;4983575;28;20411;-60
2022/11/18 10:16:13;;;;;;;12.43;2.00;;;;;;;;;;4975289;28;20054;-61
2022/11/18 10:18:45;;;;;;;10.95;2.10;;;;;;;;;;4979533;28;20386;-61
2022/11/18 10:21:30;;;;;;;16.63;2.27;;;;;;;;;;4975823;28;20030;-61
2022/11/18 10:23:59;;;;;;;9.43;2.15;;;;;;;;;;4978199;28;20389;-60
2022/11/18 10:26:37;;;;;;;13.48;1.90;;;;;;;;;;4976122;28;20534;-61
2022/11/18 10:29:06;;;;;;;11.55;1.70;;;;;;;;;;4975100;28;20491;-61
2022/11/18 10:31:35;;;;;;;14.63;2.58;;;;;;;;;;4972496;28;20164;-61
2022/11/18 10:34:02;;;;;;;9.73;2.05;;;;;;;;;;4978743;28;20027;-61
2022/11/18 10:36:33;;;;;;;12.65;3.15;;;;;;;;;;4982826;28;20084;-60
2022/11/18 10:39:10;;;;;;;15.90;3.15;;;;;;;;;;4983366;28;20027;-60
2022/11/18 10:41:41;;;;;;;23.33;3.35;;;;;;;;;;4980876;28;20034;-61
2022/11/18 10:44:26;;;;;;;19.70;2.65;;;;;;;;;;4982718;28;20113;-61
2022/11/18 10:46:52;;;;;;;14.95;2.53;;;;;;;;;;4981543;28;20034;-61
2022/11/18 10:49:18;;;;;;;12.82;2.15;;;;;;;;;;4983027;28;20402;-61
2022/11/18 10:51:46;;;;;;;16.90;2.28;;;;;;;;;;4988920;28;20034;-61
2022/11/18 10:54:14;;;;;;;8.93;2.10;;;;;;;;;;4984504;28;20105;-60
2022/11/18 10:56:44;;;;;;;20.17;2.30;;;;;;;;;;4982563;28;20023;-61
2022/11/18 10:59:16;;;;;;;13.13;2.45;;;;;;;;;;4975701;28;20418;-60
2022/11/18 11:01:42;;;;;;;11.95;2.38;;;;;;;;;;4977011;28;20030;-60
2022/11/18 11:04:27;;;;;;;11.75;2.60;;;;;;;;;;4977753;28;20074;-61
2022/11/18 11:06:54;;;;;;;10.18;2.72;;;;;;;;;;4983532;28;20038;-61
2022/11/18 11:09:26;;;;;;;9.75;1.98;;;;;;;;;;4977531;28;20053;-61
2022/11/18 11:11:55;;;;;;;9.95;2.80;;;;;;;;;;4973855;28;20022;-61
2022/11/18 11:14:23;;;;;;;11.10;2.35;;;;;;;;;;4981337;28;20057;-60
2022/11/18 11:16:57;;;;;;;16.20;2.35;;;;;;;;;;4974819;28;20030;-60
2022/11/18 11:19:24;;;;;;;11.57;2.85;;;;;;;;;;4973526;28;20031;-61
2022/11/18 11:21:51;;;;;;;13.82;2.78;;;;;;;;;;4978157;28;20034;-61
2022/11/18 11:24:18;;;;;;;15.73;2.40;;;;;;;;;;4978615;28;20039;-61
2022/11/18 11:26:50;;;;;;;14.57;1.90;;;;;;;;;;4977402;28;20034;-61
2022/11/18 11:29:16;;;;;;;10.70;1.80;;;;;;;;;;4976012;28;20038;-61
2022/11/18 11:32:02;;;;;;;9.63;1.85;;;;;;;;;;4983127;28;20034;-61
2022/11/18 11:34:41;;;;;;;10.57;1.85;;;;;;;;;;4984100;28;20024;-60
2022/11/18 11:37:22;;;;;;;12.80;2.22;;;;;;;;;;4980975;28;20059;-60
2022/11/18 11:39:53;;;;;;;12.90;2.45;;;;;;;;;;4983393;28;20641;-61
2022/11/18 11:42:32;;;;;;;14.85;1.85;;;;;;;;;;4975672;28;20084;-61
2022/11/18 11:45:17;;;;;;;10.80;2.47;;;;;;;;;;4977367;28;20121;-61
2022/11/18 11:47:56;;;;;;;10.75;1.70;;;;;;;;;;4983266;28;20036;-61
2022/11/18 11:50:25;;;;;;;6.72;1.85;;;;;;;;;;4979042;28;20476;-60
2022/11/18 11:52:51;;;;;;;14.38;1.52;;;;;;;;;;4975764;28;20062;-61
2022/11/18 11:55:23;;;;;;;5.93;1.83;;;;;;;;;;4980797;28;20034;-61
2022/11/18 11:58:01;;;;;;;7.93;2.40;;;;;;;;;;4976298;28;20035;-61
2022/11/18 12:00:29;;;;;;;10.13;2.95;;;;;;;;;;4977081;28;20122;-61
2022/11/18 12:02:55;;;;;;;17.50;3.60;;;;;;;;;;4980166;28;20034;-61
2022/11/18 12:05:33;;;;;;;13.27;2.50;;;;;;;;;;4979997;28;20027;-61
2022/11/18 12:08:03;;;;;;;10.32;1.77;;;;;;;;;;4976847;28;20074;-61
2022/11/18 12:10:29;;;;;;;6.13;2.00;;;;;;;;;;4979292;28;20029;-61
2022/11/18 12:12:55;;;;;;;9.57;2.50;;;;;;;;;;4983270;28;20023;-61
2022/11/18 12:15:37;;;;;;;17.55;3.13;;;;;;;;;;4977385;28;20039;-60
2022/11/18 12:18:18;;;;;;;13.57;3.03;;;;;;;;;;4978158;28;20069;-60
2022/11/18 12:20:48;;;;;;;5.97;1.70;;;;;;;;;;4977855;28;20030;-61
2022/11/18 12:23:27;;;;;;;15.55;4.43;;;;;;;;;;4977282;28;20038;-60
2022/11/18 12:26:10;;;;;;;10.15;2.08;;;;;;;;;;4974428;28;20046;-61
2022/11/18 12:28:40;;;;;;;12.13;2.80;;;;;;;;;;4973034;28;20030;-61
2022/11/18 12:31:27;;;;;;;8.60;1.85;;;;;;;;;;4970196;28;20054;-61
2022/11/18 12:33:53;;;;;;;9.52;2.60;;;;;;;;;;4973055;28;20039;-62
2022/11/18 12:36:25;;;;;;;11.43;1.67;;;;;;;;;;4971294;28;20073;-61
2022/11/18 12:38:52;;;;;;;12.20;3.33;;;;;;;;;;4973962;28;20367;-61
2022/11/18 12:44:21;;;;;;;;;;;;;;;;;;4969749;28;20066;-61
2022/11/18 12:46:49;;;;;;;10.43;1.83;;;;;;;;;;4972997;28;19976;-61
2022/11/18 12:49:21;;;;;;;11.25;2.42;;;;;;;;;;4975053;28;20035;-61
2022/11/18 12:51:47;;;;;;;9.15;2.05;;;;;;;;;;4978936;28;20041;-61
2022/11/18 12:54:40;;;;;;;9.98;1.85;;;;;;;;;;4978927;28;20079;-61
2022/11/18 12:57:25;;;;;;;7.77;1.83;;;;;;;;;;4976473;28;20035;-61
2022/11/18 12:59:51;;;;;;;8.98;1.63;;;;;;;;;;4981352;28;20273;-60
2022/11/18 13:02:20;;;;;;;16.17;2.08;;;;;;;;;;4980594;28;20495;-61
2022/11/18 13:05:02;;;;;;;9.50;1.70;;;;;;;;;;4982100;28;20056;-61
2022/11/18 13:10:23;;;;;;;12.27;2.67;;;;;;;;;;4983416;28;20084;-61
2022/11/18 13:12:51;;;;;;;14.02;2.05;;;;;;;;;;4983192;28;20022;-61
2022/11/18 13:18:21;;;;;;;7.10;1.90;;;;;;;;;;4989563;28;20066;-61
2022/11/18 13:20:55;;;;;;;7.53;1.77;;;;;;;;;;4985241;28;20062;-60
2022/11/18 13:26:17;;;;;;;10.90;1.85;;;;;;;;;;4981672;28;20046;-61
2022/11/18 13:28:46;;;;;;;10.60;2.03;;;;;;;;;;4979859;28;20045;-61
2022/11/18 13:31:12;;;;;;;18.25;2.33;;;;;;;;;;4986290;28;20076;-61
2022/11/18 13:33:39;;;;;;;12.15;2.17;;;;;;;;;;4983735;28;20113;-61
2022/11/18 13:36:32;;;;;;;8.55;2.03;;;;;;;;;;4983431;28;20034;-61
2022/11/18 13:39:02;;;;;;;10.85;1.92;;;;;;;;;;4982169;28;20050;-61
2022/11/18 13:41:32;;;;;;;7.35;1.98;;;;;;;;;;4987795;28;20064;-61
2022/11/18 13:44:16;;;;;;;14.02;1.70;;;;;;;;;;4985716;28;20041;-60
2022/11/18 13:46:44;;;;;;;14.38;1.92;;;;;;;;;;4981130;28;20030;-60
2022/11/18 13:49:13;;;;;;;9.20;1.42;;;;;;;;;;4986920;28;20109;-61
2022/11/18 13:51:39;;;;;;;14.30;1.85;;;;;;;;;;4983888;28;20560;-61
2022/11/18 13:54:05;;;;;;;11.65;1.95;;;;;;;;;;4987410;28;20109;-60
2022/11/18 13:56:32;;;;;;;18.15;2.80;;;;;;;;;;4979302;28;20038;-61
2022/11/18 13:59:00;;;;;;;6.63;1.55;;;;;;;;;;4977084;28;20399;-60
2022/11/18 14:01:28;;;;;;;13.68;2.22;;;;;;;;;;4975104;28;20511;-61
2022/11/18 14:04:01;;;;;;;6.38;1.63;;;;;;;;;;4974638;28;20039;-60
2022/11/18 14:06:34;;;;;;;16.90;1.73;;;;;;;;;;4976350;28;20027;-60
2022/11/18 14:09:05;;;;;;;8.95;1.70;;;;;;;;;;4973510;28;20034;-60
2022/11/18 14:11:38;;;;;;;10.27;1.77;;;;;;;;;;4972126;28;20049;-61
2022/11/18 14:14:05;;;;;;;6.18;1.55;;;;;;;;;;4974493;28;20076;-60
2022/11/18 14:16:41;;;;;;;12.07;1.73;;;;;;;;;;4977449;28;20027;-61
2022/11/18 14:19:23;;;;;;;10.18;1.58;;;;;;;;;;4976168;28;20084;-61
2022/11/18 14:21:49;;;;;;;15.80;2.38;;;;;;;;;;4977716;28;20083;-61
2022/11/18 14:24:16;;;;;;;6.00;1.40;;;;;;;;;;4981104;28;20030;-61
2022/11/18 14:26:42;;;;;;;9.23;1.95;;;;;;;;;;4981073;28;20531;-61
2022/11/18 14:29:19;;;;;;;11.15;1.90;;;;;;;;;;4981422;28;20030;-61
2022/11/18 14:32:01;;;;;;;12.80;3.50;;;;;;;;;;4979738;28;20027;-60
2022/11/18 14:34:29;;;;;;;12.07;2.13;;;;;;;;;;4976261;28;20035;-60
2022/11/18 14:36:55;;;;;;;6.28;1.55;;;;;;;;;;4976453;28;20088;-61
2022/11/18 14:39:24;;;;;;;15.02;1.85;;;;;;;;;;4975750;28;20038;-60
2022/11/18 14:41:51;;;;;;;11.68;1.80;;;;;;;;;;4977867;28;20532;-61
2022/11/18 14:44:18;;;;;;;15.35;2.85;;;;;;;;;;4975355;28;20424;-61
2022/11/18 14:46:52;;;;;;;13.52;1.98;;;;;;;;;;4980827;28;20034;-61
2022/11/18 14:49:20;;;;;;;13.23;2.15;;;;;;;;;;4976195;28;20467;-61
2022/11/18 14:51:46;;;;;;;10.93;2.95;;;;;;;;;;4980890;28;20495;-61
2022/11/18 14:54:17;;;;;;;8.27;2.15;;;;;;;;;;4975352;28;20031;-60
2022/11/18 14:56:43;;;;;;;9.00;1.60;;;;;;;;;;4979205;28;20027;-61
2022/11/18 14:59:13;;;;;;;6.65;1.60;;;;;;;;;;4974472;28;20031;-61
2022/11/18 15:01:39;;;;;;;12.00;1.77;;;;;;;;;;4973239;28;20376;-61
2022/11/18 15:04:05;;;;;;;9.65;2.25;;;;;;;;;;4975168;28;20062;-61
2022/11/18 15:06:31;;;;;;;7.82;1.55;;;;;;;;;;4975418;28;20069;-60
2022/11/18 15:08:58;;;;;;;11.80;2.17;;;;;;;;;;4975212;28;20101;-61